createdAt,value
2023-01-20T00:01:38.305Z,96.93
2023-01-20T00:04:05.883Z,96.79
2023-01-20T00:06:35.960Z,96.63
2023-01-20T00:09:03.649Z,96.70
2023-01-20T00:11:31.162Z,96.72
2023-01-20T00:14:00.315Z,96.63
2023-01-20T00:16:28.135Z,96.46
2023-01-20T00:18:55.246Z,96.36
2023-01-20T00:21:22.213Z,96.32
2023-01-20T00:23:49.944Z,96.24
2023-01-20T00:26:19.163Z,96.24
2023-01-20T00:28:46.942Z,96.07
2023-01-20T00:31:28.339Z,96.07
2023-01-20T00:33:58.003Z,95.77
2023-01-20T00:36:26.770Z,95.64
2023-01-20T00:38:53.934Z,95.73
2023-01-20T00:41:21.000Z,95.40
2023-01-20T00:43:48.108Z,95.48
2023-01-20T00:46:15.395Z,95.58
2023-01-20T00:48:42.488Z,95.36
2023-01-20T00:51:09.770Z,95.49
2023-01-20T00:53:37.484Z,95.46
2023-01-20T00:56:05.012Z,95.34
2023-01-20T00:58:32.051Z,95.21
2023-01-20T01:00:58.937Z,95.29
2023-01-20T01:03:28.254Z,95.24
2023-01-20T01:06:06.013Z,95.08
2023-01-20T01:08:34.022Z,95.01
2023-01-20T01:11:00.688Z,95.07
2023-01-20T01:13:27.859Z,95.01
2023-01-20T01:15:54.636Z,95.08
2023-01-20T01:18:21.730Z,95.08
2023-01-20T01:20:48.488Z,95.28
2023-01-20T01:23:16.151Z,95.30
2023-01-20T01:25:43.985Z,95.26
2023-01-20T01:28:10.840Z,95.38
2023-01-20T01:30:37.512Z,95.49
2023-01-20T01:33:04.996Z,95.35
2023-01-20T01:35:31.884Z,95.43
2023-01-20T01:37:58.809Z,95.43
2023-01-20T01:40:25.805Z,95.42
2023-01-20T01:42:52.675Z,95.76
2023-01-20T01:45:23.433Z,95.65
2023-01-20T01:48:03.073Z,95.82
2023-01-20T01:50:41.493Z,95.97
2023-01-20T01:53:09.773Z,95.99
2023-01-20T01:55:41.853Z,96.16
2023-01-20T01:58:11.777Z,96.16
2023-01-20T02:00:39.337Z,96.36
2023-01-20T02:03:07.647Z,96.31
2023-01-20T02:05:37.095Z,96.28
2023-01-20T02:08:04.210Z,96.42
2023-01-20T02:10:31.621Z,96.28
2023-01-20T02:13:00.289Z,96.25
2023-01-20T02:15:38.736Z,96.33
2023-01-20T02:18:21.935Z,96.37
2023-01-20T02:21:03.813Z,96.19
2023-01-20T02:24:02.185Z,96.27
2023-01-20T02:26:53.009Z,96.38
2023-01-20T02:29:47.817Z,96.38
2023-01-20T02:32:37.236Z,96.32
2023-01-20T02:35:29.540Z,96.35
2023-01-20T02:38:10.565Z,96.32
2023-01-20T02:41:07.624Z,96.66
2023-01-20T02:43:46.590Z,96.58
2023-01-20T02:46:25.476Z,96.62
2023-01-20T02:48:55.551Z,96.58
2023-01-20T02:51:39.113Z,96.63
2023-01-20T02:54:10.537Z,96.44
2023-01-20T02:56:39.122Z,96.30
2023-01-20T02:59:12.082Z,96.48
2023-01-20T03:01:50.994Z,96.51
2023-01-20T03:04:25.560Z,96.38
2023-01-20T03:06:55.034Z,96.17
2023-01-20T03:09:36.442Z,95.95
2023-01-20T03:12:11.657Z,95.66
2023-01-20T03:14:38.724Z,95.42
2023-01-20T03:17:05.661Z,95.42
2023-01-20T03:19:32.615Z,95.16
2023-01-20T03:21:59.372Z,95.16
2023-01-20T03:24:29.473Z,95.17
2023-01-20T03:26:56.400Z,95.11
2023-01-20T03:29:23.437Z,95.12
2023-01-20T03:32:10.421Z,95.26
2023-01-20T03:34:39.815Z,95.26
2023-01-20T03:37:12.523Z,95.35
2023-01-20T03:39:40.264Z,95.15
2023-01-20T03:42:29.572Z,95.40
2023-01-20T03:45:19.187Z,95.42
2023-01-20T03:48:03.903Z,95.37
2023-01-20T03:50:43.278Z,95.41
2023-01-20T03:53:26.012Z,95.40
2023-01-20T03:56:01.093Z,95.31
2023-01-20T03:58:31.974Z,95.04
2023-01-20T04:01:01.347Z,94.94
2023-01-20T04:03:48.189Z,94.85
2023-01-20T04:06:18.346Z,94.67
2023-01-20T04:08:51.456Z,95.03
2023-01-20T04:11:18.707Z,95.02
2023-01-20T04:13:45.691Z,95.01
2023-01-20T04:16:17.811Z,95.14
2023-01-20T04:18:47.883Z,95.03
2023-01-20T04:21:36.554Z,94.93
2023-01-20T04:24:16.445Z,94.75
2023-01-20T04:26:43.428Z,94.77
2023-01-20T04:29:12.934Z,94.76
2023-01-20T04:31:40.354Z,94.59
2023-01-20T04:34:07.998Z,94.43
2023-01-20T04:36:35.003Z,94.41
2023-01-20T04:39:02.039Z,94.22
2023-01-20T04:41:28.931Z,94.20
2023-01-20T04:43:58.113Z,93.99
2023-01-20T04:46:27.961Z,93.83
2023-01-20T04:48:55.128Z,93.74
2023-01-20T04:51:22.145Z,93.58
2023-01-20T04:53:49.865Z,93.66
2023-01-20T04:56:17.084Z,93.71
2023-01-20T04:58:52.999Z,93.82
2023-01-20T05:01:20.143Z,93.75
2023-01-20T05:03:49.063Z,93.74
2023-01-20T05:06:16.043Z,93.63
2023-01-20T05:08:42.812Z,93.57
2023-01-20T05:11:09.921Z,93.59
2023-01-20T05:13:39.282Z,93.74
2023-01-20T05:16:08.441Z,93.51
2023-01-20T05:18:36.037Z,93.53
2023-01-20T05:21:05.026Z,93.92
2023-01-20T05:23:31.664Z,94.02
2023-01-20T05:25:58.587Z,94.26
2023-01-20T05:28:25.755Z,94.81
2023-01-20T05:30:52.491Z,94.91
2023-01-20T05:33:19.346Z,94.99
2023-01-20T05:35:46.523Z,95.28
2023-01-20T05:38:13.639Z,95.31
2023-01-20T05:40:40.742Z,95.23
2023-01-20T05:43:07.508Z,95.31
2023-01-20T05:45:34.562Z,95.28
2023-01-20T05:48:01.650Z,95.25
2023-01-20T05:50:29.676Z,95.21
2023-01-20T05:52:56.914Z,95.24
2023-01-20T05:55:23.911Z,95.16
2023-01-20T05:57:50.837Z,95.20
2023-01-20T06:00:18.904Z,95.41
2023-01-20T06:02:45.741Z,95.21
2023-01-20T06:05:13.172Z,95.07
2023-01-20T06:07:49.588Z,94.93
2023-01-20T06:10:17.108Z,95.00
2023-01-20T06:12:43.915Z,95.06
2023-01-20T06:15:11.457Z,95.03
2023-01-20T06:17:38.385Z,94.68
2023-01-20T06:20:06.314Z,94.18
2023-01-20T06:22:33.329Z,94.28
2023-01-20T06:24:59.979Z,94.22
2023-01-20T06:27:27.178Z,94.81
2023-01-20T06:29:54.225Z,95.23
2023-01-20T06:32:21.141Z,95.95
2023-01-20T06:34:53.051Z,96.31
2023-01-20T06:37:22.406Z,96.53
2023-01-20T06:39:49.169Z,96.72
2023-01-20T06:42:16.364Z,97.04
2023-01-20T06:44:43.235Z,96.93
2023-01-20T06:47:10.189Z,97.15
2023-01-20T06:49:37.901Z,96.90
2023-01-20T06:52:08.312Z,96.71
2023-01-20T06:54:34.829Z,96.70
2023-01-20T06:57:01.659Z,96.72
2023-01-20T06:59:28.891Z,96.38
2023-01-20T07:01:55.959Z,96.52
2023-01-20T07:04:23.002Z,96.42
2023-01-20T07:06:50.225Z,96.15
2023-01-20T07:09:17.094Z,96.13
2023-01-20T07:11:44.032Z,96.10
2023-01-20T07:14:10.599Z,96.05
2023-01-20T07:16:37.727Z,96.11
2023-01-20T07:19:08.423Z,96.44
2023-01-20T07:21:35.325Z,95.79
2023-01-20T07:24:02.369Z,95.26
2023-01-20T07:26:29.847Z,94.89
2023-01-20T07:28:58.850Z,94.71
2023-01-20T07:31:31.551Z,94.44
2023-01-20T07:33:58.755Z,94.24
2023-01-20T07:36:26.283Z,94.29
2023-01-20T07:38:54.129Z,94.29
2023-01-20T07:41:22.581Z,94.22
2023-01-20T07:43:51.422Z,94.16
2023-01-20T07:46:19.717Z,94.06
2023-01-20T07:48:46.733Z,93.95
2023-01-20T07:51:18.757Z,94.09
2023-01-20T07:53:48.719Z,94.10
2023-01-20T07:56:18.828Z,93.53
2023-01-20T07:58:46.093Z,92.90
2023-01-20T08:01:18.771Z,92.45
2023-01-20T08:03:45.865Z,92.47
2023-01-20T08:06:15.501Z,92.33
2023-01-20T08:08:42.622Z,92.32
2023-01-20T08:11:12.137Z,92.11
2023-01-20T08:13:39.598Z,91.98
2023-01-20T08:16:09.776Z,91.86
2023-01-20T08:18:38.084Z,92.10
2023-01-20T08:21:08.151Z,92.15
2023-01-20T08:23:35.818Z,91.85
2023-01-20T08:26:05.544Z,92.11
2023-01-20T08:28:36.728Z,91.97
2023-01-20T08:31:15.878Z,91.65
2023-01-20T08:33:43.696Z,91.54
2023-01-20T08:36:17.676Z,91.84
2023-01-20T08:38:44.757Z,92.05
2023-01-20T08:41:19.112Z,92.53
2023-01-20T08:43:46.079Z,92.43
2023-01-20T08:46:14.653Z,91.78
2023-01-20T08:48:42.804Z,91.25
2023-01-20T08:51:14.207Z,91.11
2023-01-20T08:53:41.879Z,91.46
2023-01-20T08:56:09.886Z,91.36
2023-01-20T08:58:37.518Z,91.18
2023-01-20T09:01:21.234Z,91.10
2023-01-20T09:04:04.252Z,90.97
2023-01-20T09:06:50.241Z,90.85
2023-01-20T09:09:18.786Z,90.56
2023-01-20T09:11:50.889Z,90.50
2023-01-20T09:14:22.957Z,90.20
2023-01-20T09:16:50.113Z,90.23
2023-01-20T09:19:17.622Z,90.11
2023-01-20T09:21:44.960Z,90.12
2023-01-20T09:24:11.987Z,90.11
2023-01-20T09:26:41.580Z,90.23
2023-01-20T09:29:12.424Z,90.00
2023-01-20T09:31:44.405Z,89.74
2023-01-20T09:34:18.959Z,89.46
2023-01-20T09:36:46.085Z,89.65
2023-01-20T09:39:33.372Z,89.88
2023-01-20T09:42:30.513Z,89.89
2023-01-20T09:45:22.795Z,89.36
2023-01-20T09:47:49.903Z,89.34
2023-01-20T09:50:35.236Z,89.12
2023-01-20T09:53:05.855Z,88.68
2023-01-20T09:55:47.322Z,88.52
2023-01-20T09:58:16.705Z,87.93
2023-01-20T10:00:49.203Z,87.55
2023-01-20T10:03:26.187Z,86.74
2023-01-20T10:05:57.455Z,85.53
2023-01-20T10:08:35.901Z,84.64
2023-01-20T10:11:11.709Z,84.41
2023-01-20T10:13:51.478Z,84.24
2023-01-20T10:16:29.764Z,83.09
2023-01-20T10:19:06.267Z,83.12
2023-01-20T10:21:40.446Z,82.71
2023-01-20T10:24:18.649Z,82.61
2023-01-20T10:26:51.368Z,82.32
2023-01-20T10:29:27.580Z,81.30
2023-01-20T10:32:00.839Z,81.46
2023-01-20T10:34:50.381Z,81.84
2023-01-20T10:37:17.628Z,82.66
2023-01-20T10:39:53.376Z,82.49
2023-01-20T10:42:20.856Z,82.42
2023-01-20T10:44:49.835Z,82.49
2023-01-20T10:47:52.011Z,82.31
2023-01-20T10:50:31.594Z,81.41
2023-01-20T10:53:04.430Z,80.29
2023-01-20T10:55:57.899Z,79.76
2023-01-20T10:58:28.769Z,80.15
2023-01-20T11:00:57.363Z,80.19
2023-01-20T11:03:25.415Z,79.98
2023-01-20T11:05:52.560Z,79.49
2023-01-20T11:08:37.610Z,78.85
2023-01-20T11:11:15.010Z,78.58
2023-01-20T11:13:41.819Z,77.37
2023-01-20T11:16:17.816Z,76.39
2023-01-20T11:19:02.333Z,76.48
2023-01-20T11:21:36.736Z,76.38
2023-01-20T11:24:35.817Z,77.02
2023-01-20T11:27:07.246Z,77.02
2023-01-20T11:29:42.280Z,76.57
2023-01-20T11:32:44.351Z,75.46
2023-01-20T11:35:24.642Z,75.00
2023-01-20T11:37:52.393Z,74.65
2023-01-20T11:40:25.506Z,73.89
2023-01-20T11:42:53.771Z,73.29
2023-01-20T11:45:34.573Z,71.87
2023-01-20T11:48:16.526Z,71.15
2023-01-20T11:51:22.936Z,69.84
2023-01-20T11:53:49.954Z,70.14
2023-01-20T11:56:24.700Z,69.71
2023-01-20T11:58:59.040Z,68.66
2023-01-20T12:02:01.436Z,68.29
2023-01-20T12:04:38.551Z,67.26
2023-01-20T12:07:22.742Z,66.95
2023-01-20T12:09:54.582Z,66.86
2023-01-20T12:12:31.748Z,65.75
2023-01-20T12:15:06.008Z,64.97
2023-01-20T12:17:40.713Z,64.55
2023-01-20T12:20:25.109Z,64.90
2023-01-20T12:23:15.127Z,65.84
2023-01-20T12:26:02.101Z,66.20
2023-01-20T12:28:31.451Z,66.68
2023-01-20T12:31:03.548Z,66.86
2023-01-20T12:33:43.254Z,67.63
2023-01-20T12:36:33.344Z,67.95
2023-01-20T12:39:28.581Z,68.31
2023-01-20T12:42:10.193Z,68.98
2023-01-20T12:45:02.716Z,68.75
2023-01-20T12:48:06.452Z,68.75
2023-01-20T12:50:52.082Z,65.95
2023-01-20T12:53:39.023Z,62.64
2023-01-20T12:56:16.886Z,61.82
2023-01-20T12:58:52.347Z,61.21
2023-01-20T13:01:26.408Z,60.75
2023-01-20T13:03:58.935Z,58.19
2023-01-20T13:06:54.580Z,57.05
2023-01-20T13:09:29.181Z,54.33
2023-01-20T13:12:17.534Z,50.04
2023-01-20T13:14:58.838Z,47.66
2023-01-20T13:17:40.243Z,46.75
2023-01-20T13:20:19.931Z,45.21
2023-01-20T13:22:46.822Z,43.52
2023-01-20T13:25:15.596Z,45.56
2023-01-20T13:27:44.621Z,47.62
2023-01-20T13:30:39.933Z,49.08
2023-01-20T13:33:15.371Z,50.60
2023-01-20T13:35:49.773Z,52.31
2023-01-20T13:38:25.837Z,53.85
2023-01-20T13:40:54.903Z,55.02
2023-01-20T13:43:27.032Z,55.96
2023-01-20T13:46:06.042Z,57.40
2023-01-20T13:48:38.167Z,59.10
2023-01-20T13:51:27.252Z,58.74
2023-01-20T13:53:54.249Z,57.26
2023-01-20T13:56:25.841Z,54.07
2023-01-20T13:58:53.137Z,52.44
2023-01-20T14:01:19.832Z,48.15
2023-01-20T14:04:11.061Z,44.63
2023-01-20T14:06:45.745Z,42.99
2023-01-20T14:09:20.646Z,40.75
2023-01-20T14:11:53.213Z,40.55
2023-01-20T14:14:24.956Z,42.01
2023-01-20T14:16:52.387Z,43.72
2023-01-20T14:19:32.528Z,45.43
2023-01-20T14:22:04.511Z,47.90
2023-01-20T14:24:38.016Z,49.80
2023-01-20T14:27:16.868Z,51.92
2023-01-20T14:29:49.434Z,53.29
2023-01-20T14:32:31.823Z,54.27
2023-01-20T14:35:11.980Z,55.62
2023-01-20T14:37:40.269Z,57.27
2023-01-20T14:40:19.139Z,58.43
2023-01-20T14:42:55.861Z,59.36
2023-01-20T14:45:25.618Z,60.17
2023-01-20T14:47:53.004Z,60.75
2023-01-20T14:50:20.815Z,61.04
2023-01-20T14:52:56.587Z,61.56
2023-01-20T14:55:43.369Z,62.09
2023-01-20T14:58:15.825Z,62.76
2023-01-20T15:00:44.262Z,63.18
2023-01-20T15:03:28.429Z,63.77
2023-01-20T15:06:01.373Z,64.29
2023-01-20T15:08:34.727Z,65.12
2023-01-20T15:11:12.599Z,65.19
2023-01-20T15:13:40.639Z,65.76
2023-01-20T15:16:20.326Z,66.14
2023-01-20T15:19:16.071Z,66.51
2023-01-20T15:21:51.633Z,66.95
2023-01-20T15:24:23.745Z,67.22
2023-01-20T15:26:52.803Z,67.89
2023-01-20T15:29:25.399Z,68.13
2023-01-20T15:31:54.226Z,67.84
2023-01-20T15:34:22.162Z,67.92
2023-01-20T15:36:50.416Z,68.37
2023-01-20T15:39:26.008Z,68.39
2023-01-20T15:41:55.452Z,68.71
2023-01-20T15:44:24.429Z,68.55
2023-01-20T15:46:51.528Z,68.77
2023-01-20T15:49:19.023Z,68.97
2023-01-20T15:51:46.507Z,69.00
2023-01-20T15:54:13.806Z,69.17
2023-01-20T15:56:42.309Z,69.24
2023-01-20T15:59:18.103Z,69.66
2023-01-20T16:01:47.229Z,69.74
2023-01-20T16:04:17.655Z,70.05
2023-01-20T16:06:45.291Z,70.03
2023-01-20T16:09:30.542Z,70.07
2023-01-20T16:11:57.379Z,70.42
2023-01-20T16:14:24.130Z,71.14
2023-01-20T16:16:51.067Z,70.89
2023-01-20T16:19:17.944Z,71.06
2023-01-20T16:21:45.749Z,71.17
2023-01-20T16:24:12.728Z,71.29
2023-01-20T16:26:39.567Z,71.49
2023-01-20T16:29:06.448Z,71.73
2023-01-20T16:31:33.661Z,72.09
2023-01-20T16:34:04.313Z,72.13
2023-01-20T16:36:31.226Z,72.06
2023-01-20T16:38:58.053Z,72.25
2023-01-20T16:41:31.001Z,72.57
2023-01-20T16:43:58.617Z,73.11
2023-01-20T16:46:31.668Z,73.17
2023-01-20T16:49:03.456Z,73.40
2023-01-20T16:51:31.393Z,73.65
2023-01-20T16:53:59.303Z,73.92
2023-01-20T16:56:30.713Z,74.10
2023-01-20T16:59:01.602Z,74.25
2023-01-20T17:01:30.736Z,74.66
2023-01-20T17:03:59.869Z,74.81
2023-01-20T17:06:29.210Z,75.11
2023-01-20T17:08:58.424Z,75.31
2023-01-20T17:11:26.497Z,75.46
2023-01-20T17:13:54.901Z,75.63
2023-01-20T17:16:23.236Z,75.72
2023-01-20T17:18:55.577Z,75.66
2023-01-20T17:21:23.527Z,75.92
2023-01-20T17:23:55.025Z,75.84
2023-01-20T17:26:25.107Z,76.38
2023-01-20T17:29:10.308Z,76.43
2023-01-20T17:31:37.374Z,76.48
2023-01-20T17:34:04.966Z,76.53
2023-01-20T17:36:34.921Z,76.55
2023-01-20T17:39:03.226Z,76.88
2023-01-20T17:41:29.791Z,76.70
2023-01-20T17:43:56.643Z,77.18
2023-01-20T17:46:27.924Z,76.99
2023-01-20T17:48:57.846Z,77.14
2023-01-20T17:51:26.530Z,77.09
2023-01-20T17:53:53.557Z,77.31
2023-01-20T17:56:21.960Z,77.48
2023-01-20T17:58:49.842Z,77.73
2023-01-20T18:01:27.964Z,77.78
2023-01-20T18:03:56.407Z,77.64
2023-01-20T18:06:24.680Z,77.88
2023-01-20T18:08:56.968Z,78.02
2023-01-20T18:11:25.353Z,78.37
2023-01-20T18:13:55.313Z,78.89
2023-01-20T18:16:24.250Z,79.04
2023-01-20T18:18:51.187Z,79.29
2023-01-20T18:21:22.933Z,79.29
2023-01-20T18:23:50.725Z,79.36
2023-01-20T18:26:20.740Z,79.49
2023-01-20T18:28:48.062Z,79.63
2023-01-20T18:31:20.262Z,79.77
2023-01-20T18:33:58.118Z,79.83
2023-01-20T18:36:27.621Z,79.88
2023-01-20T18:38:58.111Z,80.00
2023-01-20T18:41:26.003Z,80.11
2023-01-20T18:43:53.140Z,80.12
2023-01-20T18:46:20.672Z,80.43
2023-01-20T18:48:48.963Z,80.69
2023-01-20T18:51:17.816Z,80.65
2023-01-20T18:53:46.277Z,80.95
2023-01-20T18:56:15.514Z,81.20
2023-01-20T18:58:47.288Z,81.03
2023-01-20T19:01:19.800Z,81.19
2023-01-20T19:03:47.735Z,81.82
2023-01-20T19:06:19.831Z,81.73
2023-01-20T19:08:48.384Z,82.18
2023-01-20T19:11:18.793Z,82.12
2023-01-20T19:13:48.679Z,82.46
2023-01-20T19:16:16.732Z,82.69
2023-01-20T19:18:45.347Z,82.90
2023-01-20T19:21:15.837Z,82.87
2023-01-20T19:23:43.923Z,83.06
2023-01-20T19:26:12.928Z,83.02
2023-01-20T19:28:40.627Z,82.93
2023-01-20T19:31:16.940Z,82.83
2023-01-20T19:33:45.199Z,82.82
2023-01-20T19:36:14.397Z,83.08
2023-01-20T19:38:42.109Z,83.20
2023-01-20T19:41:14.569Z,83.10
2023-01-20T19:43:42.120Z,83.15
2023-01-20T19:46:14.761Z,83.27
2023-01-20T19:48:42.200Z,83.08
2023-01-20T19:51:12.492Z,83.29
2023-01-20T19:53:39.559Z,83.34
2023-01-20T19:56:09.428Z,83.31
2023-01-20T19:58:36.619Z,83.15
2023-01-20T20:01:17.956Z,83.43
2023-01-20T20:03:44.801Z,83.45
2023-01-20T20:06:31.872Z,83.75
2023-01-20T20:09:31.994Z,83.58
2023-01-20T20:12:05.249Z,83.89
2023-01-20T20:14:33.131Z,84.03
2023-01-20T20:16:59.876Z,84.17
2023-01-20T20:19:26.896Z,84.10
2023-01-20T20:21:58.672Z,84.28
2023-01-20T20:24:25.625Z,84.62
2023-01-20T20:26:52.691Z,84.80
2023-01-20T20:29:20.131Z,85.03
2023-01-20T20:31:47.380Z,85.30
2023-01-20T20:34:17.086Z,85.39
2023-01-20T20:36:44.375Z,85.58
2023-01-20T20:39:15.155Z,85.70
2023-01-20T20:41:42.663Z,85.69
2023-01-20T20:44:10.332Z,85.88
2023-01-20T20:46:37.976Z,86.21
2023-01-20T20:49:05.367Z,86.81
2023-01-20T20:51:33.850Z,86.99
2023-01-20T20:54:03.181Z,87.28
2023-01-20T20:56:34.448Z,87.34
2023-01-20T20:59:03.625Z,87.51
2023-01-20T21:01:32.955Z,87.52
2023-01-20T21:04:00.624Z,87.76
2023-01-20T21:06:28.447Z,87.90
2023-01-20T21:08:56.006Z,87.85
2023-01-20T21:11:24.142Z,87.88
2023-01-20T21:13:51.878Z,87.93
2023-01-20T21:16:21.926Z,88.23
2023-01-20T21:18:50.035Z,88.18
2023-01-20T21:21:17.571Z,88.42
2023-01-20T21:23:48.571Z,88.95
2023-01-20T21:26:15.546Z,88.98
2023-01-20T21:28:45.849Z,89.23
2023-01-20T21:31:14.269Z,89.36
2023-01-20T21:33:42.661Z,89.28
2023-01-20T21:36:12.415Z,89.40
2023-01-20T21:38:46.221Z,89.51
2023-01-20T21:41:14.568Z,89.76
2023-01-20T21:44:01.880Z,89.96
2023-01-20T21:46:31.124Z,89.94
2023-01-20T21:49:16.785Z,90.16
2023-01-20T21:52:02.271Z,90.18
2023-01-20T21:54:30.644Z,90.33
2023-01-20T21:56:58.786Z,90.27
2023-01-20T21:59:25.922Z,90.36
2023-01-20T22:01:52.876Z,90.51
2023-01-20T22:04:20.081Z,90.71
2023-01-20T22:06:46.725Z,90.95
2023-01-20T22:09:13.885Z,90.95
2023-01-20T22:11:40.968Z,90.88
2023-01-20T22:14:09.305Z,91.02
2023-01-20T22:16:36.351Z,90.85
2023-01-20T22:19:03.382Z,90.76
2023-01-20T22:21:31.960Z,90.81
2023-01-20T22:23:58.832Z,90.93
2023-01-20T22:26:25.711Z,90.83
2023-01-20T22:28:52.904Z,90.89
2023-01-20T22:31:24.024Z,90.99
2023-01-20T22:33:53.152Z,91.13
2023-01-20T22:36:20.780Z,91.05
2023-01-20T22:38:50.043Z,91.52
2023-01-20T22:41:17.260Z,91.64
2023-01-20T22:43:44.289Z,91.51
2023-01-20T22:46:13.630Z,91.48
2023-01-20T22:48:41.106Z,91.70
2023-01-20T22:51:10.811Z,92.16
2023-01-20T22:53:39.355Z,92.24
2023-01-20T22:56:15.309Z,92.17
2023-01-20T22:58:42.725Z,92.35
2023-01-20T23:01:18.106Z,92.29
2023-01-20T23:03:46.085Z,92.35
2023-01-20T23:06:16.057Z,92.53
2023-01-20T23:08:43.296Z,92.46
2023-01-20T23:11:14.880Z,92.59
2023-01-20T23:13:42.321Z,92.81
2023-01-20T23:16:15.258Z,93.08
2023-01-20T23:18:42.266Z,93.11
2023-01-20T23:21:09.062Z,93.30
2023-01-20T23:23:39.425Z,93.33
2023-01-20T23:26:13.687Z,93.22
2023-01-20T23:28:40.626Z,93.22
2023-01-20T23:31:10.002Z,93.22
2023-01-20T23:33:37.161Z,93.14
2023-01-20T23:36:12.409Z,93.15
2023-01-20T23:38:39.089Z,92.66
2023-01-20T23:41:06.161Z,92.75
2023-01-20T23:43:33.252Z,93.07
2023-01-20T23:46:02.227Z,92.84
2023-01-20T23:48:29.267Z,92.85
2023-01-20T23:50:59.870Z,92.72
2023-01-20T23:53:28.217Z,92.93
2023-01-20T23:56:14.835Z,93.09
2023-01-20T23:58:43.387Z,93.46
